Time;durP1;ratioP1;P1;durP2;ratioP2;P2;SDS_P1;SDS_P2;PMS_P1;PMS_P2;Temp;Humidity;BMP_temperature;BMP_pressure;BME280_temperature;BME280_humidity;BME280_pressure;Samples;Min_cycle;Max_cycle;Signal;HPM_P1;HPM_P2
2022/11/25 00:01:13;;;;;;;;;;;7.10;99.90;;;;;;4991983;28;19923;-73
2022/11/25 00:03:40;;;;;;;;;;;7.10;99.90;;;;;;4936394;28;166481;-73
2022/11/25 00:06:17;;;;;;;;;;;7.10;99.90;;;;;;5010635;28;20405;-73
2022/11/25 00:08:43;;;;;;;;;;;7.10;99.90;;;;;;4951314;28;207082;-73
2022/11/25 00:11:10;;;;;;;;;;;7.20;99.90;;;;;;4983859;28;19922;-74
2022/11/25 00:13:37;;;;;;;;;;;7.20;99.90;;;;;;4933392;28;210385;-76
2022/11/25 00:16:04;;;;;;;;;;;7.20;99.90;;;;;;4962662;28;19926;-73
2022/11/25 00:18:30;;;;;;;;;;;7.20;99.90;;;;;;4925803;28;209414;-73
2022/11/25 00:20:57;;;;;;;;;;;7.20;99.90;;;;;;4965616;28;20395;-74
2022/11/25 00:23:26;;;;;;;;;;;7.10;99.90;;;;;;4940751;28;176029;-74
2022/11/25 00:25:55;;;;;;;;;;;7.20;99.90;;;;;;4965234;28;19926;-75
2022/11/25 00:28:21;;;;;;;;;;;7.20;99.90;;;;;;4947584;28;206859;-73
2022/11/25 00:30:50;;;;;;;;;;;7.20;99.90;;;;;;5013052;28;19945;-75
2022/11/25 00:33:19;;;;;;;;;;;7.10;99.90;;;;;;4968638;28;157516;-74
2022/11/25 00:35:51;;;;;;;;;;;7.20;99.90;;;;;;5004840;28;19926;-74
2022/11/25 00:38:20;;;;;;;;;;;7.10;99.90;;;;;;4965317;28;219741;-75
2022/11/25 00:46:23;;;;;;;;;;;7.10;99.90;;;;;;4999651;28;19922;-74
2022/11/25 00:48:50;;;;;;;;;;;7.10;99.90;;;;;;4981809;28;189580;-73
2022/11/25 00:51:16;;;;;;;;;;;7.10;99.90;;;;;;5023787;28;19922;-75
2022/11/25 00:53:42;;;;;;;;;;;7.20;99.90;;;;;;4952251;28;211964;-72
2022/11/25 00:56:14;;;;;;;;;;;7.20;99.90;;;;;;5002166;28;19921;-73
2022/11/25 00:58:41;;;;;;;;;;;7.20;99.90;;;;;;4937833;28;214143;-73
2022/11/25 01:01:07;;;;;;;;;;;7.20;99.90;;;;;;4962953;28;19922;-73
2022/11/25 01:03:35;;;;;;;;;;;7.20;99.90;;;;;;4935208;28;114539;-74
2022/11/25 01:06:08;;;;;;;;;;;7.20;99.90;;;;;;4983577;28;19925;-74
2022/11/25 01:09:11;;;;;;;;;;;7.20;99.90;;;;;;4597775;28;10003310;-74
2022/11/25 01:11:33;;;;;;;;;;;7.30;99.90;;;;;;4989655;28;19929;-74
2022/11/25 01:13:59;;;;;;;;;;;7.30;99.90;;;;;;4916040;28;212454;-75
2022/11/25 01:16:26;;;;;;;;;;;7.30;99.90;;;;;;4975576;28;19933;-74
2022/11/25 01:18:52;;;;;;;;;;;7.30;99.90;;;;;;4923784;28;222592;-74
2022/11/25 01:21:22;;;;;;;;;;;7.30;99.90;;;;;;4991004;28;19930;-75
2022/11/25 01:23:48;;;;;;;;;;;7.30;99.90;;;;;;4920159;28;211778;-73
2022/11/25 01:26:21;;;;;;;;;;;7.30;99.90;;;;;;4972782;28;19933;-74
2022/11/25 01:28:51;;;;;;;;;;;7.30;99.90;;;;;;4934804;28;150961;-73
2022/11/25 01:31:19;;;;;;;;;;;7.30;99.90;;;;;;4961835;28;19922;-75
2022/11/25 01:33:47;;;;;;;;;;;7.20;99.90;;;;;;4925157;28;245775;-74
2022/11/25 01:36:14;;;;;;;;;;;7.20;99.90;;;;;;4988989;28;19930;-74
2022/11/25 01:38:40;;;;;;;;;;;7.30;99.90;;;;;;4934260;28;193825;-74
2022/11/25 01:41:11;;;;;;;;;;;7.30;99.90;;;;;;4976284;28;19965;-75
2022/11/25 01:43:59;;;;;;;;;;;7.30;99.90;;;;;;4925861;28;258562;-74
2022/11/25 01:46:26;;;;;;;;;;;7.30;99.90;;;;;;4977218;28;19926;-75
2022/11/25 01:49:19;;;;;;;;;;;7.40;99.90;;;;;;4946552;28;214647;-73
2022/11/25 01:52:09;;;;;;;;;;;7.40;99.90;;;;;;4957640;28;19933;-74
2022/11/25 01:54:45;;;;;;;;;;;7.30;99.90;;;;;;4907695;28;213566;-74
2022/11/25 01:57:17;;;;;;;;;;;7.40;99.90;;;;;;4995386;28;19926;-74
2022/11/25 01:59:48;;;;;;;;;;;7.40;99.90;;;;;;4954182;28;430400;-73
2022/11/25 02:02:15;;;;;;;;;;;7.40;99.90;;;;;;4993324;28;20399;-71
2022/11/25 02:04:42;;;;;;;;;;;7.40;99.90;;;;;;4945993;28;210439;-73
2022/11/25 02:07:12;;;;;;;;;;;7.40;99.90;;;;;;4975862;28;19929;-71
2022/11/25 02:09:43;;;;;;;;;;;7.50;99.90;;;;;;4964784;28;210271;-74
2022/11/25 02:12:09;;;;;;;;;;;7.50;99.90;;;;;;5006347;28;19922;-74
2022/11/25 02:14:35;;;;;;;;;;;7.50;99.90;;;;;;4955168;28;206545;-73
2022/11/25 02:17:01;;;;;;;;;;;7.50;99.90;;;;;;4986591;28;19923;-74
2022/11/25 02:19:38;;;;;;;;;;;7.50;99.90;;;;;;4967704;28;209400;-73
2022/11/25 02:22:09;;;;;;;;;;;7.50;99.90;;;;;;5007775;28;19933;-73
2022/11/25 02:24:41;;;;;;;;;;;7.50;99.90;;;;;;4972914;28;174440;-74
2022/11/25 02:27:08;;;;;;;;;;;7.50;99.90;;;;;;5011727;28;19922;-73
2022/11/25 02:29:35;;;;;;;;;;;7.50;99.90;;;;;;4956667;28;205931;-73
2022/11/25 02:32:01;;;;;;;;;;;7.50;99.90;;;;;;5009041;28;19949;-72
2022/11/25 02:34:27;;;;;;;;;;;7.50;99.90;;;;;;4976637;28;170562;-73
2022/11/25 02:36:53;;;;;;;;;;;7.50;99.90;;;;;;5008982;28;19936;-73
2022/11/25 02:39:19;;;;;;;;;;;7.50;99.90;;;;;;4948818;28;179973;-73
2022/11/25 02:41:56;;;;;;;;;;;7.50;99.90;;;;;;4976778;28;20428;-73
2022/11/25 02:44:24;;;;;;;;;;;7.40;99.90;;;;;;4950567;28;211522;-73
2022/11/25 02:46:50;;;;;;;;;;;7.50;99.90;;;;;;4981305;28;19926;-73
2022/11/25 02:49:16;;;;;;;;;;;7.50;99.90;;;;;;4971235;28;61318;-73
2022/11/25 02:51:43;;;;;;;;;;;7.50;99.90;;;;;;4961774;28;19946;-73
2022/11/25 02:54:10;;;;;;;;;;;7.50;99.90;;;;;;4925461;28;208403;-73
2022/11/25 02:56:36;;;;;;;;;;;7.50;99.90;;;;;;4961273;28;19933;-72
2022/11/25 02:59:02;;;;;;;;;;;7.50;99.90;;;;;;4949334;28;206731;-72
2022/11/25 03:01:30;;;;;;;;;;;7.50;99.90;;;;;;4966851;28;19934;-74
2022/11/25 03:03:56;;;;;;;;;;;7.50;99.90;;;;;;4929292;28;215021;-72
2022/11/25 03:06:23;;;;;;;;;;;7.60;99.90;;;;;;4973233;28;19926;-72
2022/11/25 03:08:54;;;;;;;;;;;7.50;99.90;;;;;;4967669;28;208818;-73
2022/11/25 03:12:17;;;;;;;;;;;7.60;99.90;;;;;;4981789;28;19930;-72
2022/11/25 03:14:06;;;;;;;;;;;7.60;99.90;;;;;;4951747;28;147186;-72
2022/11/25 03:16:33;;;;;;;;;;;7.60;99.90;;;;;;4981798;28;20012;-73
2022/11/25 03:19:08;;;;;;;;;;;7.60;99.90;;;;;;4975092;28;207560;-73
2022/11/25 03:21:34;;;;;;;;;;;7.60;99.90;;;;;;4983047;28;20394;-73
2022/11/25 03:24:02;;;;;;;;;;;7.60;99.90;;;;;;4964505;28;240681;-72
2022/11/25 03:27:30;;;;;;;;;;;;;;;;;;;;;
2022/11/25 03:29:36;;;;;;;;;;;7.60;99.90;;;;;;4875773;28;2979547;-74
2022/11/25 03:32:29;;;;;;;;;;;7.60;99.90;;;;;;4991589;28;20498;-74
2022/11/25 03:35:13;;;;;;;;;;;;;;;;;;;;;
2022/11/25 03:38:13;;;;;;;;;;;7.60;99.90;;;;;;4949997;28;226388;-73
2022/11/25 03:40:52;;;;;;;;;;;;;;;;;;;;;
2022/11/25 03:46:17;;;;;;;;;;;7.60;99.90;;;;;;4923713;29;19930;-74
2022/11/25 03:48:59;;;;;;;;;;;7.60;99.90;;;;;;4904945;28;194941;-73
2022/11/25 03:51:28;;;;;;;;;;;7.70;99.90;;;;;;4953336;28;20324;-74
2022/11/25 03:53:57;;;;;;;;;;;7.70;99.90;;;;;;4651156;28;7188390;-73
2022/11/25 03:56:39;;;;;;;;;;;7.70;99.90;;;;;;4934226;29;19922;-73
2022/11/25 03:59:39;;;;;;;;;;;7.70;99.90;;;;;;4759597;29;2986682;-73
2022/11/25 04:02:13;;;;;;;;;;;7.70;99.90;;;;;;4900561;29;20382;-73
2022/11/25 04:04:51;;;;;;;;;;;7.70;99.90;;;;;;4727799;29;2986431;-74
2022/11/25 04:07:18;;;;;;;;;;;7.70;99.90;;;;;;4912524;29;19927;-74
2022/11/25 04:10:04;;;;;;;;;;;7.70;99.90;;;;;;4836869;29;239457;-74
2022/11/25 04:12:53;;;;;;;;;;;7.70;99.90;;;;;;4866604;29;202950;-74
2022/11/25 04:15:22;;;;;;;;;;;7.70;99.90;;;;;;4825232;29;38726;-73
2022/11/25 04:17:51;;;;;;;;;;;7.80;99.90;;;;;;4723890;29;2944093;-75
2022/11/25 04:20:20;;;;;;;;;;;7.80;99.90;;;;;;4858713;29;19927;-73
2022/11/25 04:22:46;;;;;;;;;;;7.80;99.90;;;;;;4814638;29;172640;-74
2022/11/25 04:25:12;;;;;;;;;;;7.80;99.90;;;;;;4857364;29;19932;-73
2022/11/25 04:27:48;;;;;;;;;;;7.80;99.90;;;;;;4795428;29;207775;-74
2022/11/25 04:30:14;;;;;;;;;;;7.80;99.90;;;;;;4875279;29;19927;-74
2022/11/25 04:32:41;;;;;;;;;;;7.90;99.90;;;;;;4849449;29;226447;-74
2022/11/25 04:35:07;;;;;;;;;;;7.90;99.90;;;;;;4921086;29;19960;-74
2022/11/25 04:37:35;;;;;;;;;;;7.90;99.90;;;;;;4872816;29;135981;-74
2022/11/25 04:40:01;;;;;;;;;;;7.90;99.90;;;;;;4882521;29;212292;-74
2022/11/25 04:42:35;;;;;;;;;;;7.90;99.90;;;;;;4888460;29;112122;-74
2022/11/25 04:45:03;;;;;;;;;;;7.90;99.90;;;;;;4881129;28;241150;-74
2022/11/25 04:47:31;;;;;;;;;;;7.90;99.90;;;;;;4975785;28;258410;-75
2022/11/25 04:50:00;;;;;;;;;;;7.90;99.90;;;;;;4971385;28;72975;-75
2022/11/25 04:52:26;;;;;;;;;;;7.90;99.90;;;;;;5009293;28;20394;-76
2022/11/25 04:54:52;;;;;;;;;;;7.90;99.90;;;;;;4969594;28;206034;-75
2022/11/25 04:57:23;;;;;;;;;;;7.90;99.90;;;;;;5013246;28;19922;-75
2022/11/25 04:59:51;;;;;;;;;;;7.90;99.90;;;;;;4981233;28;173039;-74
2022/11/25 05:02:19;;;;;;;;;;;7.90;99.90;;;;;;4980606;28;19929;-74
2022/11/25 05:04:53;;;;;;;;;;;7.90;99.90;;;;;;4945230;28;206082;-74
2022/11/25 05:07:33;;;;;;;;;;;7.90;99.90;;;;;;4991981;28;19930;-73
2022/11/25 05:09:58;;;;;;;;;;;7.90;99.90;;;;;;4940813;28;226207;-73
2022/11/25 05:12:27;;;;;;;;;;;7.90;99.90;;;;;;5009966;28;19980;-72
2022/11/25 05:14:54;;;;;;;;;;;7.90;99.90;;;;;;4972871;28;170261;-74
2022/11/25 05:17:22;;;;;;;;;;;7.90;99.90;;;;;;4982559;28;19924;-73
2022/11/25 05:19:48;;;;;;;;;;;7.90;99.90;;;;;;4961906;28;175377;-73
2022/11/25 05:22:19;;;;;;;;;;;7.90;99.90;;;;;;4991908;28;20315;-73
2022/11/25 05:24:49;;;;;;;;;;;7.90;99.90;;;;;;4871063;28;3091651;-73
2022/11/25 05:27:21;;;;;;;;;;;7.90;99.90;;;;;;5007252;28;19928;-73
2022/11/25 05:29:50;;;;;;;;;;;7.90;99.90;;;;;;4963798;28;207334;-74
2022/11/25 05:32:15;;;;;;;;;;;7.90;99.90;;;;;;4978380;28;19922;-74
2022/11/25 05:34:51;;;;;;;;;;;7.90;99.90;;;;;;4973901;28;229069;-73
2022/11/25 05:37:17;;;;;;;;;;;7.90;99.90;;;;;;4980136;28;20487;-74
2022/11/25 05:39:43;;;;;;;;;;;8.00;99.90;;;;;;4970294;28;209241;-73
2022/11/25 05:42:09;;;;;;;;;;;7.90;99.90;;;;;;4980930;28;20494;-73
2022/11/25 05:44:35;;;;;;;;;;;8.00;99.90;;;;;;4941443;28;210573;-74
2022/11/25 05:47:02;;;;;;;;;;;8.00;99.90;;;;;;4976822;28;20048;-74
2022/11/25 05:49:29;;;;;;;;;;;8.00;99.90;;;;;;4980400;28;208021;-76
2022/11/25 05:51:55;;;;;;;;;;;8.00;99.90;;;;;;4976256;28;19922;-74
2022/11/25 05:54:23;;;;;;;;;;;8.00;99.90;;;;;;4973575;28;208399;-73
2022/11/25 05:56:49;;;;;;;;;;;8.00;99.90;;;;;;4980338;28;19922;-73
2022/11/25 05:59:15;;;;;;;;;;;8.00;99.90;;;;;;4976687;28;189370;-74
2022/11/25 06:01:44;;;;;;;;;;;8.10;99.90;;;;;;5008010;28;20343;-73
2022/11/25 06:04:10;;;;;;;;;;;8.10;99.90;;;;;;4964048;28;214451;-74
2022/11/25 06:06:36;;;;;;;;;;;8.00;99.90;;;;;;5006471;28;19933;-76
2022/11/25 06:09:02;;;;;;;;;;;8.10;99.90;;;;;;4946191;28;207672;-73
2022/11/25 06:11:29;;;;;;;;;;;8.10;99.90;;;;;;4960648;28;19980;-73
2022/11/25 06:13:57;;;;;;;;;;;8.10;99.90;;;;;;4941026;28;213174;-73
2022/11/25 06:16:27;;;;;;;;;;;8.10;99.90;;;;;;4997626;28;19926;-75
2022/11/25 06:18:56;;;;;;;;;;;8.10;99.90;;;;;;4981119;28;220268;-74
2022/11/25 06:21:22;;;;;;;;;;;8.10;99.90;;;;;;4978854;28;19926;-74
2022/11/25 06:24:08;;;;;;;;;;;8.10;99.90;;;;;;4960897;28;128445;-73
2022/11/25 06:26:35;;;;;;;;;;;8.10;99.90;;;;;;4973420;28;20268;-73
2022/11/25 06:29:01;;;;;;;;;;;8.10;99.90;;;;;;4973796;28;221693;-74
2022/11/25 06:31:27;;;;;;;;;;;8.20;99.90;;;;;;4985573;28;20418;-75
2022/11/25 06:33:53;;;;;;;;;;;8.20;99.90;;;;;;4957577;28;209889;-73
2022/11/25 06:36:19;;;;;;;;;;;8.10;99.90;;;;;;4989349;28;19926;-73
2022/11/25 06:38:46;;;;;;;;;;;8.10;99.90;;;;;;4942945;28;208874;-74
2022/11/25 06:41:13;;;;;;;;;;;8.10;99.90;;;;;;4991175;28;19934;-73
2022/11/25 06:43:40;;;;;;;;;;;8.10;99.90;;;;;;4947447;28;202272;-75
2022/11/25 06:46:07;;;;;;;;;;;8.20;99.90;;;;;;4976276;28;19926;-74
2022/11/25 06:48:33;;;;;;;;;;;8.20;99.90;;;;;;4964328;28;212798;-73
2022/11/25 06:51:01;;;;;;;;;;;8.20;99.90;;;;;;4999888;28;19926;-74
2022/11/25 06:53:27;;;;;;;;;;;8.20;99.90;;;;;;4943177;28;209051;-75
2022/11/25 06:56:06;;;;;;;;;;;8.20;99.90;;;;;;4984697;28;19937;-74
2022/11/25 06:58:34;;;;;;;;;;;8.20;99.90;;;;;;4952210;28;216131;-74
2022/11/25 07:01:08;;;;;;;;;;;8.20;99.90;;;;;;5006335;28;19930;-73
2022/11/25 07:03:35;;;;;;;;;;;8.20;99.90;;;;;;4925204;28;208255;-74
2022/11/25 07:06:01;;;;;;;;;;;8.20;99.90;;;;;;4951150;28;19933;-75
2022/11/25 07:08:28;;;;;;;;;;;8.20;99.90;;;;;;4946427;28;236057;-74
2022/11/25 07:10:54;;;;;;;;;;;8.20;99.90;;;;;;5000373;28;19930;-73
2022/11/25 07:13:21;;;;;;;;;;;8.20;99.90;;;;;;4933765;28;211904;-74
2022/11/25 07:15:47;;;;;;;;;;;8.20;99.90;;;;;;4983759;28;20376;-74
2022/11/25 07:18:13;;;;;;;;;;;8.20;99.90;;;;;;4920927;28;221647;-74
2022/11/25 07:20:38;;;;;;;;;;;8.20;99.90;;;;;;4975440;28;19933;-75
2022/11/25 07:23:04;;;;;;;;;;;8.20;99.90;;;;;;4922486;28;206376;-75
2022/11/25 07:25:31;;;;;;;;;;;8.20;99.90;;;;;;4990989;28;20395;-75
2022/11/25 07:27:57;;;;;;;;;;;8.10;99.90;;;;;;4928350;28;203493;-74
2022/11/25 07:30:23;;;;;;;;;;;8.20;99.90;;;;;;5005585;28;19956;-75
2022/11/25 07:32:49;;;;;;;;;;;8.10;99.90;;;;;;4940656;28;208844;-74
2022/11/25 07:35:14;;;;;;;;;;;8.10;99.90;;;;;;5022692;28;20276;-75
2022/11/25 07:37:41;;;;;;;;;;;8.10;99.90;;;;;;4931570;28;206400;-74
2022/11/25 07:40:07;;;;;;;;;;;8.00;99.90;;;;;;5010286;28;20445;-75
2022/11/25 07:42:33;;;;;;;;;;;8.00;99.90;;;;;;4949948;28;208231;-72
2022/11/25 07:44:59;;;;;;;;;;;8.00;99.90;;;;;;4963156;28;19922;-75
2022/11/25 07:47:25;;;;;;;;;;;8.00;99.90;;;;;;4981100;28;215315;-73
2022/11/25 07:49:51;;;;;;;;;;;8.00;99.90;;;;;;4978977;28;30591;-74
2022/11/25 07:52:16;;;;;;;;;;;8.00;99.90;;;;;;5013466;28;20381;-74
2022/11/25 07:54:42;;;;;;;;;;;7.90;99.90;;;;;;4962822;28;211560;-75
2022/11/25 07:57:08;;;;;;;;;;;7.90;99.90;;;;;;5000109;28;19928;-74
2022/11/25 07:59:35;;;;;;;;;;;7.90;99.90;;;;;;4953237;28;205553;-76
2022/11/25 08:02:00;;;;;;;;;;;7.90;99.90;;;;;;4974363;28;20383;-74
2022/11/25 08:04:26;;;;;;;;;;;7.90;99.90;;;;;;4944079;28;124125;-75
2022/11/25 08:06:52;;;;;;;;;;;7.90;99.90;;;;;;4980156;28;19964;-74
2022/11/25 08:09:20;;;;;;;;;;;7.90;99.90;;;;;;4985210;28;205734;-74
2022/11/25 08:11:47;;;;;;;;;;;7.90;99.90;;;;;;4978171;28;19922;-75
2022/11/25 08:14:13;;;;;;;;;;;7.80;99.90;;;;;;4968065;28;207811;-74
2022/11/25 08:16:39;;;;;;;;;;;7.80;99.90;;;;;;4977199;28;20002;-75
2022/11/25 08:19:06;;;;;;;;;;;7.80;99.90;;;;;;4968378;28;211025;-74
2022/11/25 08:21:32;;;;;;;;;;;7.80;99.90;;;;;;4989921;28;19933;-74
2022/11/25 08:24:01;;;;;;;;;;;7.80;99.90;;;;;;4955599;28;206552;-74
2022/11/25 08:26:29;;;;;;;;;;;7.80;99.90;;;;;;4982222;28;19936;-75
2022/11/25 08:28:56;;;;;;;;;;;7.80;99.90;;;;;;4974805;28;210118;-74
2022/11/25 08:31:24;;;;;;;;;;;7.80;99.90;;;;;;4980168;28;19925;-73
2022/11/25 08:33:51;;;;;;;;;;;7.90;99.90;;;;;;4977389;28;174080;-75
2022/11/25 08:36:18;;;;;;;;;;;7.90;99.90;;;;;;4961112;28;20423;-75
2022/11/25 08:38:45;;;;;;;;;;;7.90;99.90;;;;;;4948978;28;235810;-74
2022/11/25 08:41:11;;;;;;;;;;;8.00;99.90;;;;;;4988948;28;19937;-74
2022/11/25 08:43:38;;;;;;;;;;;8.00;99.90;;;;;;4954193;28;207541;-75
2022/11/25 08:46:10;;;;;;;;;;;8.00;99.90;;;;;;4984278;28;20310;-74
2022/11/25 08:48:36;;;;;;;;;;;8.00;99.90;;;;;;4960804;28;212107;-74
2022/11/25 08:51:06;;;;;;;;;;;8.10;99.90;;;;;;4996617;28;19929;-75
2022/11/25 08:53:32;;;;;;;;;;;8.10;99.90;;;;;;4969307;28;207583;-74
2022/11/25 08:55:58;;;;;;;;;;;8.10;99.90;;;;;;4988897;28;19926;-75
2022/11/25 08:58:24;;;;;;;;;;;8.20;99.90;;;;;;4962373;28;137811;-76
2022/11/25 09:00:50;;;;;;;;;;;8.20;99.90;;;;;;5001708;28;21157;-76
2022/11/25 09:03:17;;;;;;;;;;;8.20;99.90;;;;;;4956030;28;212186;-75
2022/11/25 09:05:43;;;;;;;;;;;8.20;99.90;;;;;;4994118;28;19926;-74
2022/11/25 09:08:09;;;;;;;;;;;8.20;99.90;;;;;;4963391;28;199673;-74
2022/11/25 09:10:35;;;;;;;;;;;8.20;99.90;;;;;;5024361;28;19929;-74
2022/11/25 09:13:02;;;;;;;;;;;8.20;99.90;;;;;;4955965;28;207943;-74
2022/11/25 09:15:28;;;;;;;;;;;8.20;99.90;;;;;;5004866;28;19929;-74
2022/11/25 09:18:01;;;;;;;;;;;8.20;99.90;;;;;;4973361;28;66764;-74
2022/11/25 09:20:28;;;;;;;;;;;8.30;99.90;;;;;;4999855;28;19929;-74
2022/11/25 09:22:54;;;;;;;;;;;8.30;99.90;;;;;;4936359;28;224772;-74
2022/11/25 09:25:21;;;;;;;;;;;8.30;99.90;;;;;;5005593;28;19993;-76
2022/11/25 09:27:49;;;;;;;;;;;8.40;99.90;;;;;;4931625;28;208408;-75
2022/11/25 09:30:15;;;;;;;;;;;8.40;99.90;;;;;;4988049;28;19926;-76
2022/11/25 09:32:41;;;;;;;;;;;8.50;99.90;;;;;;4956586;28;208463;-76
2022/11/25 09:35:07;;;;;;;;;;;8.60;99.90;;;;;;4972760;28;19922;-74
2022/11/25 09:37:33;;;;;;;;;;;8.60;99.90;;;;;;4940929;28;210576;-73
2022/11/25 09:39:59;;;;;;;;;;;8.60;99.90;;;;;;4977434;28;19933;-75
2022/11/25 09:48:33;;;;;;;;;;;8.70;99.90;;;;;;4928420;28;126153;-77
2022/11/25 09:51:08;;;;;;;;;;;8.80;99.90;;;;;;4956177;28;19933;-75
2022/11/25 09:53:44;;;;;;;;;;;8.80;99.90;;;;;;4922683;28;165407;-74
2022/11/25 09:56:13;;;;;;;;;;;8.80;99.90;;;;;;4977076;28;19930;-75
2022/11/25 09:58:55;;;;;;;;;;;8.80;99.90;;;;;;4923633;28;209958;-76
2022/11/25 10:01:25;;;;;;;;;;;8.90;99.90;;;;;;4973653;28;19926;-75
2022/11/25 10:03:53;;;;;;;;;;;8.90;99.90;;;;;;4907592;28;206100;-75
2022/11/25 10:06:25;;;;;;;;;;;9.00;99.90;;;;;;4978276;28;19922;-75
2022/11/25 10:09:01;;;;;;;;;;;9.00;99.90;;;;;;4936483;28;201104;-75
2022/11/25 10:11:41;;;;;;;;;;;9.00;99.90;;;;;;4977711;28;19926;-74
2022/11/25 10:14:30;;;;;;;;;;;9.10;99.90;;;;;;4945389;28;141088;-75
2022/11/25 10:17:00;;;;;;;;;;;9.20;99.90;;;;;;4962770;28;20518;-75
2022/11/25 10:19:38;;;;;;;;;;;9.20;99.90;;;;;;4928869;28;140669;-76
2022/11/25 10:22:10;;;;;;;;;;;9.20;99.90;;;;;;4966834;28;19930;-75
2022/11/25 10:24:36;;;;;;;;;;;9.30;99.90;;;;;;4910321;28;207134;-75
2022/11/25 10:27:06;;;;;;;;;;;9.40;99.90;;;;;;4954723;28;19922;-74
2022/11/25 10:29:36;;;;;;;;;;;9.40;99.90;;;;;;4975405;28;209295;-74
2022/11/25 10:32:28;;;;;;;;;;;9.40;99.90;;;;;;5013805;28;19933;-76
2022/11/25 10:34:59;;;;;;;;;;;9.50;99.90;;;;;;4958131;28;206116;-74
2022/11/25 10:37:37;;;;;;;;;;;9.60;99.90;;;;;;4968680;28;224688;-74
2022/11/25 10:40:03;;;;;;;;;;;9.60;99.90;;;;;;4980324;28;216512;-75
2022/11/25 10:42:31;;;;;;;;;;;9.70;99.90;;;;;;4979707;28;207170;-75
2022/11/25 10:44:57;;;;;;;;;;;9.70;99.90;;;;;;4949506;28;20402;-76
2022/11/25 10:47:29;;;;;;;;;;;9.80;99.90;;;;;;4988229;28;19934;-75
2022/11/25 10:50:07;;;;;;;;;;;9.80;99.90;;;;;;4936162;28;212385;-75
2022/11/25 10:52:36;;;;;;;;;;;9.80;99.90;;;;;;4955978;28;220716;-75
2022/11/25 10:55:16;;;;;;;;;;;9.90;99.90;;;;;;4945379;28;206282;-75
2022/11/25 10:57:42;;;;;;;;;;;9.90;99.90;;;;;;4915891;28;210142;-75
2022/11/25 11:00:27;;;;;;;;;;;10.00;99.90;;;;;;5022054;28;19945;-75
2022/11/25 11:02:53;;;;;;;;;;;10.10;99.90;;;;;;4963566;28;200581;-75
2022/11/25 11:05:22;;;;;;;;;;;10.10;99.90;;;;;;5008825;28;19918;-75
2022/11/25 11:08:05;;;;;;;;;;;10.10;99.90;;;;;;4930254;28;219400;-75
2022/11/25 11:10:31;;;;;;;;;;;10.10;99.90;;;;;;4977846;28;19926;-75
2022/11/25 11:12:59;;;;;;;;;;;10.10;99.90;;;;;;4923915;28;208844;-75
2022/11/25 11:15:28;;;;;;;;;;;10.10;99.90;;;;;;4956927;28;19926;-75
2022/11/25 11:17:54;;;;;;;;;;;10.10;99.90;;;;;;4950141;28;206137;-75
2022/11/25 11:20:25;;;;;;;;;;;10.10;99.90;;;;;;4995258;28;20303;-75
2022/11/25 11:22:59;;;;;;;;;;;10.10;99.90;;;;;;4931055;28;209155;-76
2022/11/25 11:25:27;;;;;;;;;;;10.20;99.90;;;;;;4970259;28;19926;-77
2022/11/25 11:27:53;;;;;;;;;;;10.20;99.90;;;;;;4939930;28;154411;-75
2022/11/25 11:30:20;;;;;;;;;;;10.30;99.90;;;;;;5014152;28;20433;-75
2022/11/25 11:33:06;;;;;;;;;;;10.40;99.90;;;;;;4966354;28;207417;-77
2022/11/25 11:35:49;;;;;;;;;;;10.40;99.90;;;;;;5003793;28;19925;-74
2022/11/25 11:38:23;;;;;;;;;;;10.60;99.90;;;;;;4972382;28;190332;-74
2022/11/25 11:40:51;;;;;;;;;;;10.60;99.90;;;;;;4996740;28;19926;-74
2022/11/25 11:43:28;;;;;;;;;;;10.70;99.90;;;;;;4956650;28;214412;-74
2022/11/25 11:45:54;;;;;;;;;;;10.80;99.90;;;;;;5003049;28;19933;-73
2022/11/25 11:48:20;;;;;;;;;;;10.80;99.90;;;;;;4944223;28;206894;-75
2022/11/25 11:50:49;;;;;;;;;;;10.80;99.90;;;;;;4998872;28;20300;-75
2022/11/25 11:53:15;;;;;;;;;;;10.70;99.90;;;;;;4960514;28;199241;-74
2022/11/25 11:55:47;;;;;;;;;;;10.90;99.90;;;;;;5005813;28;19926;-75
2022/11/25 11:58:22;;;;;;;;;;;11.00;99.90;;;;;;4943541;28;218073;-75
2022/11/25 12:00:53;;;;;;;;;;;11.10;99.90;;;;;;5005465;28;19934;-75
2022/11/25 12:03:21;;;;;;;;;;;11.30;99.90;;;;;;4941226;28;206900;-74
2022/11/25 12:05:52;;;;;;;;;;;12.20;99.90;;;;;;5011360;28;19922;-74
2022/11/25 12:08:19;;;;;;;;;;;12.10;99.90;;;;;;4939366;28;206802;-74
2022/11/25 12:11:04;;;;;;;;;;;11.90;99.90;;;;;;4980310;28;19937;-74
2022/11/25 12:13:40;;;;;;;;;;;11.60;99.90;;;;;;4942824;28;224117;-77
2022/11/25 12:16:12;;;;;;;;;;;11.40;99.90;;;;;;4992827;28;19941;-75
2022/11/25 12:18:47;;;;;;;;;;;11.20;99.90;;;;;;4971165;28;128568;-74
2022/11/25 12:21:13;;;;;;;;;;;11.90;99.90;;;;;;4983912;28;20315;-74
2022/11/25 12:23:39;;;;;;;;;;;13.10;99.90;;;;;;4947357;28;359679;-74
2022/11/25 12:26:14;;;;;;;;;;;13.70;99.90;;;;;;4989823;28;19997;-74
2022/11/25 12:28:46;;;;;;;;;;;13.40;99.90;;;;;;4954479;28;208616;-74
2022/11/25 12:31:12;;;;;;;;;;;12.80;99.90;;;;;;4989468;28;19930;-74
2022/11/25 12:33:42;;;;;;;;;;;13.00;99.90;;;;;;4960823;28;210976;-75
2022/11/25 12:36:10;;;;;;;;;;;14.10;99.90;;;;;;4990656;28;19930;-74
2022/11/25 12:38:39;;;;;;;;;;;14.90;99.90;;;;;;4937333;28;208695;-76
2022/11/25 12:41:24;;;;;;;;;;;15.10;99.90;;;;;;4972904;28;19930;-74
2022/11/25 12:43:52;;;;;;;;;;;14.10;99.90;;;;;;4967746;28;154400;-72
2022/11/25 12:46:34;;;;;;;;;;;13.60;99.90;;;;;;4992020;28;19956;-75
2022/11/25 12:49:01;;;;;;;;;;;14.30;99.90;;;;;;4960867;28;119301;-74
2022/11/25 12:51:33;;;;;;;;;;;15.20;99.90;;;;;;4974621;28;19926;-76
2022/11/25 12:54:09;;;;;;;;;;;14.70;99.90;;;;;;4969617;28;183332;-75
2022/11/25 12:56:44;;;;;;;;;;;14.60;99.90;;;;;;4991751;28;20307;-76
2022/11/25 12:59:29;;;;;;;;;;;14.40;99.90;;;;;;4968603;28;193381;-74
2022/11/25 13:02:03;;;;;;;;;;;14.70;99.90;;;;;;4977150;28;19926;-74
2022/11/25 13:04:45;;;;;;;;;;;15.90;99.90;;;;;;4962504;28;206421;-75
2022/11/25 13:07:20;;;;;;;;;;;16.50;99.90;;;;;;4975810;28;19930;-74
2022/11/25 13:10:06;;;;;;;;;;;15.50;99.90;;;;;;4957749;28;211709;-74
2022/11/25 13:12:50;;;;;;;;;;;15.20;99.90;;;;;;4955546;28;218585;-75
2022/11/25 13:15:37;;;;;;;;;;;14.90;99.90;;;;;;4985824;28;19922;-74
2022/11/25 13:18:08;;;;;;;;;;;14.40;99.90;;;;;;4947535;28;206028;-74
2022/11/25 13:20:35;;;;;;;;;;;13.90;99.90;;;;;;5009572;28;19941;-74
2022/11/25 13:23:03;;;;;;;;;;;13.60;99.90;;;;;;4963815;28;195093;-76
2022/11/25 13:25:30;;;;;;;;;;;13.70;99.90;;;;;;4997031;28;19921;-75
2022/11/25 13:27:58;;;;;;;;;;;14.40;99.90;;;;;;4941165;28;211202;-75
2022/11/25 13:30:33;;;;;;;;;;;14.20;99.90;;;;;;5018112;28;19930;-74
2022/11/25 13:33:07;;;;;;;;;;;14.80;99.90;;;;;;4963163;28;157417;-73
2022/11/25 13:35:34;;;;;;;;;;;14.90;99.90;;;;;;5001029;28;19941;-75
2022/11/25 13:38:05;;;;;;;;;;;14.20;99.90;;;;;;4969324;28;171706;-75
2022/11/25 13:40:31;;;;;;;;;;;13.70;99.90;;;;;;4996406;28;19929;-74
2022/11/25 13:42:59;;;;;;;;;;;13.30;99.90;;;;;;4938854;28;211358;-74
2022/11/25 13:45:25;;;;;;;;;;;13.00;99.90;;;;;;5018683;28;19922;-74
2022/11/25 13:47:51;;;;;;;;;;;12.70;99.90;;;;;;4935356;28;211917;-74
2022/11/25 13:50:21;;;;;;;;;;;12.50;99.90;;;;;;5015562;28;19933;-74
2022/11/25 13:52:47;;;;;;;;;;;12.50;99.90;;;;;;4945604;28;206622;-74
2022/11/25 13:55:16;;;;;;;;;;;12.90;99.90;;;;;;5006613;28;19953;-74
2022/11/25 13:57:44;;;;;;;;;;;12.90;99.90;;;;;;4961736;28;210484;-74
2022/11/25 14:00:13;;;;;;;;;;;13.60;99.90;;;;;;4996198;28;19978;-74
2022/11/25 14:02:45;;;;;;;;;;;12.90;99.90;;;;;;4964029;28;212769;-73
2022/11/25 14:05:27;;;;;;;;;;;13.10;99.90;;;;;;4997211;28;20296;-74
2022/11/25 14:08:06;;;;;;;;;;;13.00;99.90;;;;;;4960762;28;212044;-73
2022/11/25 14:10:35;;;;;;;;;;;12.80;99.90;;;;;;4987726;28;19926;-75
2022/11/25 14:13:20;;;;;;;;;;;12.40;99.90;;;;;;4956178;28;215389;-74
2022/11/25 14:15:46;;;;;;;;;;;12.40;99.90;;;;;;5002350;28;19926;-74
2022/11/25 14:18:15;;;;;;;;;;;12.10;99.90;;;;;;4976264;28;161143;-74
2022/11/25 14:21:04;;;;;;;;;;;11.90;99.90;;;;;;5007731;28;19930;-75
2022/11/25 14:23:33;;;;;;;;;;;12.00;99.90;;;;;;4961414;28;104018;-74
2022/11/25 14:26:04;;;;;;;;;;;11.80;99.90;;;;;;5004982;28;19930;-74
2022/11/25 14:28:34;;;;;;;;;;;11.60;99.90;;;;;;4970449;28;197413;-74
2022/11/25 14:31:05;;;;;;;;;;;11.50;99.90;;;;;;4982811;28;19937;-74
2022/11/25 14:33:34;;;;;;;;;;;11.40;99.90;;;;;;4967580;28;204220;-75
2022/11/25 14:36:26;;;;;;;;;;;11.30;99.90;;;;;;4978167;28;20437;-75
2022/11/25 14:39:00;;;;;;;;;;;11.20;99.90;;;;;;4950003;28;141972;-73
2022/11/25 14:41:37;;;;;;;;;;;11.10;99.90;;;;;;4976581;28;19953;-74
2022/11/25 14:44:07;;;;;;;;;;;11.00;99.90;;;;;;4964956;28;121744;-74
2022/11/25 14:46:33;;;;;;;;;;;10.90;99.90;;;;;;4979727;28;19937;-74
2022/11/25 14:49:00;;;;;;;;;;;10.90;99.90;;;;;;4978578;28;139800;-74
2022/11/25 14:51:32;;;;;;;;;;;10.80;99.90;;;;;;4979267;28;19930;-73
2022/11/25 14:53:58;;;;;;;;;;;10.80;99.90;;;;;;4972491;28;165614;-73
2022/11/25 14:56:29;;;;;;;;;;;10.70;99.90;;;;;;4984606;28;19976;-73